Time;durP1;ratioP1;P1;durP2;ratioP2;P2;SDS_P1;SDS_P2;PMS_P1;PMS_P2;Temp;Humidity;BMP_temperature;BMP_pressure;BME280_temperature;BME280_humidity;BME280_pressure;Samples;Min_cycle;Max_cycle;Signal;HPM_P1;HPM_P2
2021/05/16 00:00:23;;;;;;;;;;;;;;;8.47;81.82;95007.98;1673672;85;20491;-67
2021/05/16 00:02:52;;;;;;;;;;;;;;;8.57;81.73;95012.16;1673942;85;20154;-67
2021/05/16 00:05:20;;;;;;;;;;;;;;;8.64;81.74;95007.19;1674060;86;20169;-66
2021/05/16 00:07:47;;;;;;;;;;;;;;;8.69;81.83;95016.73;1674339;86;20170;-67
2021/05/16 00:10:15;;;;;;;;;;;;;;;8.72;81.92;95012.72;1674320;86;20166;-67
2021/05/16 00:12:41;;;;;;;;;;;;;;;8.77;81.40;95016.11;1674304;85;20146;-67
2021/05/16 00:15:11;;;;;;;;;;;;;;;8.72;81.23;95009.66;1680681;85;20178;-66
2021/05/16 00:17:37;;;;;;;;;;;;;;;8.59;81.93;95011.68;1694948;85;20155;-67
2021/05/16 00:20:09;;;;;;;;;;;;;;;8.60;82.41;95010.77;1694929;85;20169;-67
2021/05/16 00:22:37;;;;;;;;;;;;;;;8.59;82.42;95006.42;1694739;84;20198;-67
2021/05/16 00:25:07;;;;;;;;;;;;;;;8.60;82.57;94999.39;1693861;85;20487;-67
2021/05/16 00:27:35;;;;;;;;;;;;;;;8.49;83.15;95002.22;1694913;85;20170;-67
2021/05/16 00:30:03;;;;;;;;;;;;;;;8.47;83.37;94995.25;1660854;85;20150;-67
2021/05/16 00:32:30;;;;;;;;;;;;;;;8.49;83.62;94997.41;1694834;85;20151;-66
2021/05/16 00:34:57;;;;;;;;;;;;;;;8.58;83.35;94986.27;1694796;84;20487;-67
2021/05/16 00:37:24;;;;;;;;;;;;;;;8.57;83.16;94996.83;1694710;85;20162;-67
2021/05/16 00:39:50;;;;;;;;;;;;;;;8.67;82.40;94987.85;1694731;85;20491;-67
2021/05/16 00:42:16;;;;;;;;;;;;;;;8.67;82.53;94987.85;1694806;85;20155;-66
2021/05/16 00:45:01;;;;;;;;;;;;;;;8.71;82.51;94987.33;1694688;85;20138;-67
2021/05/16 00:47:28;;;;;;;;;;;;;;;8.60;82.81;94985.79;1643777;85;20458;-67
2021/05/16 00:49:57;;;;;;;;;;;;;;;8.53;83.13;94980.23;1694634;85;20166;-66
2021/05/16 00:52:25;;;;;;;;;;;;;;;8.46;83.25;94977.30;1694828;84;20218;-66
2021/05/16 00:54:53;;;;;;;;;;;;;;;8.41;82.70;94977.84;1694700;84;20159;-67
2021/05/16 00:57:21;;;;;;;;;;;;;;;8.42;82.54;94975.20;1694631;85;20215;-66
2021/05/16 00:59:47;;;;;;;;;;;;;;;8.44;82.78;94972.09;1694798;85;20131;-67
2021/05/16 01:02:14;;;;;;;;;;;;;;;8.44;82.42;94972.09;1694906;85;20239;-66
2021/05/16 01:04:41;;;;;;;;;;;;;;;8.44;82.70;94968.58;1694565;85;20182;-66
2021/05/16 01:07:08;;;;;;;;;;;;;;;8.45;82.67;94965.93;1694860;85;20170;-66
2021/05/16 01:09:35;;;;;;;;;;;;;;;8.45;82.17;94959.81;1694778;85;20230;-67
2021/05/16 01:12:04;;;;;;;;;;;;;;;8.44;82.42;94966.84;1694822;84;20162;-66
2021/05/16 01:14:40;;;;;;;;;;;;;;;8.37;82.51;94961.70;1694796;85;20190;-67
2021/05/16 01:17:04;;;;;;;;;;;;;;;8.31;82.81;94958.73;1694329;85;20182;-66
2021/05/16 01:19:33;;;;;;;;;;;;;;;8.18;82.75;94954.63;1694673;85;20142;-67
2021/05/16 01:22:02;;;;;;;;;;;;;;;8.08;82.06;94949.98;1659555;85;20225;-67
2021/05/16 01:24:29;;;;;;;;;;;;;;;8.03;81.92;94939.56;1694548;85;20213;-67
2021/05/16 01:26:59;;;;;;;;;;;;;;;8.03;82.38;94949.20;1693661;85;20558;-67
2021/05/16 01:29:27;;;;;;;;;;;;;;;7.94;82.50;94946.32;1694801;85;20491;-66
2021/05/16 01:31:54;;;;;;;;;;;;;;;7.88;82.65;94946.42;1694642;84;20503;-66
2021/05/16 01:34:22;;;;;;;;;;;;;;;7.87;82.87;94948.64;1694725;85;20479;-66
2021/05/16 01:36:49;;;;;;;;;;;;;;;7.84;83.25;94947.39;1694772;85;20160;-67
2021/05/16 01:39:16;;;;;;;;;;;;;;;7.78;83.14;94948.34;1694678;85;20586;-67
2021/05/16 01:41:42;;;;;;;;;;;;;;;7.77;83.11;94947.08;1694871;85;20146;-66
2021/05/16 01:44:13;;;;;;;;;;;;;;;7.80;83.27;94947.87;1694669;85;20161;-67
2021/05/16 01:46:43;;;;;;;;;;;;;;;7.81;83.34;94953.98;1694658;85;20204;-66
2021/05/16 01:49:07;;;;;;;;;;;;;;;7.86;83.27;94960.05;1694386;85;20175;-67
2021/05/16 01:51:33;;;;;;;;;;;;;;;7.92;83.53;94959.92;1694674;84;20499;-67
2021/05/16 01:54:00;;;;;;;;;;;;;;;7.94;83.24;94963.85;1694370;85;20135;-66
2021/05/16 01:56:28;;;;;;;;;;;;;;;7.95;83.09;94967.74;1694787;84;20158;-66
2021/05/16 01:58:57;;;;;;;;;;;;;;;7.95;82.86;94965.12;1694674;84;20177;-67
2021/05/16 02:01:24;;;;;;;;;;;;;;;7.99;82.94;94970.75;1694478;85;20164;-66
2021/05/16 02:03:53;;;;;;;;;;;;;;;7.96;82.58;94977.38;1694753;85;20142;-66
2021/05/16 02:06:20;;;;;;;;;;;;;;;7.87;82.42;94973.59;1660393;85;20222;-66
2021/05/16 02:08:47;;;;;;;;;;;;;;;7.89;82.51;94973.13;1661185;85;20155;-66
2021/05/16 02:11:15;;;;;;;;;;;;;;;7.85;82.23;94970.58;1693759;85;20158;-67
2021/05/16 02:13:43;;;;;;;;;;;;;;;7.83;82.31;94973.22;1694185;85;20170;-66
2021/05/16 02:16:13;;;;;;;;;;;;;;;7.67;82.82;94985.76;1694522;85;20249;-67
2021/05/16 02:18:40;;;;;;;;;;;;;;;7.62;82.91;94977.55;1694856;85;20158;-66
2021/05/16 02:21:10;;;;;;;;;;;;;;;7.69;83.17;94980.49;1694349;85;20480;-67
2021/05/16 02:23:39;;;;;;;;;;;;;;;7.65;83.17;94983.59;1660827;85;20579;-66
2021/05/16 02:26:06;;;;;;;;;;;;;;;7.61;82.62;94979.73;1694744;84;20159;-66
2021/05/16 02:28:33;;;;;;;;;;;;;;;7.57;82.81;94978.93;1694693;85;20174;-67
2021/05/16 02:31:04;;;;;;;;;;;;;;;7.64;82.64;94974.45;1694617;85;20143;-66
2021/05/16 02:33:30;;;;;;;;;;;;;;;7.66;82.55;94976.58;1694709;84;20495;-66
2021/05/16 02:35:57;;;;;;;;;;;;;;;7.65;82.69;94973.55;1694475;85;20166;-66
2021/05/16 02:38:24;;;;;;;;;;;;;;;7.48;83.60;94977.31;1694839;85;20158;-66
2021/05/16 02:40:51;;;;;;;;;;;;;;;7.41;83.49;94988.83;1660941;85;20139;-66
2021/05/16 02:43:17;;;;;;;;;;;;;;;7.40;83.70;94984.45;1660993;85;20230;-67
2021/05/16 02:45:44;;;;;;;;;;;;;;;7.31;83.47;94982.00;1694616;84;20170;-67
2021/05/16 02:48:13;;;;;;;;;;;;;;;7.28;84.14;94984.22;1694689;84;20175;-66
2021/05/16 02:50:39;;;;;;;;;;;;;;;7.27;84.46;94989.03;1694629;85;20173;-66
2021/05/16 02:53:06;;;;;;;;;;;;;;;7.22;84.43;94992.63;1694615;85;20170;-66
2021/05/16 02:55:34;;;;;;;;;;;;;;;7.20;84.26;94988.70;1694152;85;20516;-66
2021/05/16 02:58:01;;;;;;;;;;;;;;;7.17;84.29;94987.44;1694592;85;20162;-66
2021/05/16 03:00:29;;;;;;;;;;;;;;;7.20;83.85;94986.52;1694292;85;20173;-67
2021/05/16 03:02:55;;;;;;;;;;;;;;;7.11;84.42;94988.41;1694592;85;20225;-67
2021/05/16 03:05:22;;;;;;;;;;;;;;;7.08;84.64;94988.88;1694713;85;20217;-66
2021/05/16 03:07:49;;;;;;;;;;;;;;;7.00;85.22;94989.44;1694795;85;20154;-67
2021/05/16 03:10:16;;;;;;;;;;;;;;;6.92;85.22;94989.09;1694589;85;20242;-66
2021/05/16 03:12:43;;;;;;;;;;;;;;;6.87;85.16;94988.75;1694613;85;20495;-66
2021/05/16 03:15:11;;;;;;;;;;;;;;;6.83;85.12;94981.80;1694574;85;20166;-66
2021/05/16 03:17:38;;;;;;;;;;;;;;;6.84;84.76;94982.25;1694658;85;20150;-66
2021/05/16 03:20:07;;;;;;;;;;;;;;;6.85;84.40;94986.14;1694653;85;20159;-66
2021/05/16 03:22:34;;;;;;;;;;;;;;;6.88;84.24;94983.50;1694606;84;20496;-66
2021/05/16 03:25:00;;;;;;;;;;;;;;;7.00;84.13;94982.43;1694595;85;20147;-66
2021/05/16 03:27:26;;;;;;;;;;;;;;;7.09;83.91;94978.37;1694707;85;20159;-66
2021/05/16 03:29:53;;;;;;;;;;;;;;;7.13;83.72;94976.55;1694789;85;20233;-66
2021/05/16 03:32:19;;;;;;;;;;;;;;;7.04;84.46;94979.34;1694505;85;20146;-66
2021/05/16 03:34:46;;;;;;;;;;;;;;;7.00;84.56;94983.75;1694585;85;20491;-66
2021/05/16 03:37:12;;;;;;;;;;;;;;;6.94;84.21;94980.77;1694829;85;20167;-66
2021/05/16 03:39:38;;;;;;;;;;;;;;;6.91;83.83;94982.14;1694811;84;20146;-66
2021/05/16 03:42:06;;;;;;;;;;;;;;;7.01;84.13;94984.19;1694751;84;20166;-66
2021/05/16 03:44:33;;;;;;;;;;;;;;;7.17;84.49;94981.33;1695149;85;20166;-66
2021/05/16 03:47:00;;;;;;;;;;;;;;;7.24;84.05;94981.66;1694591;85;20487;-66
2021/05/16 03:49:26;;;;;;;;;;;;;;;7.30;85.22;94982.87;1694811;85;20175;-67
2021/05/16 03:51:53;;;;;;;;;;;;;;;7.43;85.28;94979.14;1694857;84;20186;-67
2021/05/16 03:54:19;;;;;;;;;;;;;;;7.52;85.32;94971.58;1694841;84;20499;-67
2021/05/16 03:56:46;;;;;;;;;;;;;;;7.67;85.56;94975.71;1694924;84;20488;-66
2021/05/16 03:59:13;;;;;;;;;;;;;;;7.79;85.43;94976.36;1694722;85;20158;-67
2021/05/16 04:01:39;;;;;;;;;;;;;;;8.01;85.54;94968.96;1694708;84;20151;-66
2021/05/16 04:04:06;;;;;;;;;;;;;;;8.12;85.42;94962.19;1694832;85;20519;-67
2021/05/16 04:06:32;;;;;;;;;;;;;;;8.39;85.04;94972.64;1694730;84;20158;-67
2021/05/16 04:08:59;;;;;;;;;;;;;;;8.61;84.58;94965.61;1694809;85;20591;-66
2021/05/16 04:11:25;;;;;;;;;;;;;;;8.84;84.29;94966.42;1694829;85;20170;-67
2021/05/16 04:13:52;;;;;;;;;;;;;;;9.03;83.50;94962.49;1694834;85;20142;-67
2021/05/16 04:16:19;;;;;;;;;;;;;;;9.15;83.27;94961.78;1696159;85;20147;-66
2021/05/16 04:18:45;;;;;;;;;;;;;;;9.23;82.91;94968.62;1698270;85;20174;-67
2021/05/16 04:21:12;;;;;;;;;;;;;;;9.34;82.14;94964.41;1698195;85;20202;-66
2021/05/16 04:23:38;;;;;;;;;;;;;;;9.39;82.18;94969.56;1698307;85;20158;-67
2021/05/16 04:26:05;;;;;;;;;;;;;;;9.40;82.14;94964.70;1698390;85;20154;-67
2021/05/16 04:28:31;;;;;;;;;;;;;;;9.47;81.85;94962.34;1698200;85;20530;-67
2021/05/16 04:30:58;;;;;;;;;;;;;;;9.46;82.01;94965.89;1698211;85;20138;-67
2021/05/16 04:33:24;;;;;;;;;;;;;;;9.43;82.96;94964.66;1698394;85;20150;-66
2021/05/16 04:35:50;;;;;;;;;;;;;;;9.53;83.34;94964.38;1698113;85;20162;-67
2021/05/16 04:38:17;;;;;;;;;;;;;;;9.66;82.98;94964.08;1698281;85;20214;-67
2021/05/16 04:40:45;;;;;;;;;;;;;;;9.72;82.41;94958.19;1698427;85;20146;-67
2021/05/16 04:43:13;;;;;;;;;;;;;;;9.78;82.14;94953.23;1698329;85;20162;-67
2021/05/16 04:45:40;;;;;;;;;;;;;;;9.82;82.60;94956.64;1698398;85;20143;-66
2021/05/16 04:48:07;;;;;;;;;;;;;;;9.85;82.43;94949.55;1698117;85;20234;-67
2021/05/16 04:50:34;;;;;;;;;;;;;;;9.85;82.40;94957.45;1698388;85;20154;-67
2021/05/16 04:53:00;;;;;;;;;;;;;;;9.89;81.98;94950.31;1698464;85;20154;-67
2021/05/16 04:55:27;;;;;;;;;;;;;;;9.91;81.50;94952.00;1698193;85;20134;-67
2021/05/16 04:57:53;;;;;;;;;;;;;;;9.93;81.21;94951.52;1698265;85;20166;-67
2021/05/16 05:00:21;;;;;;;;;;;;;;;9.95;80.91;94943.13;1698257;85;20150;-67
2021/05/16 05:02:48;;;;;;;;;;;;;;;10.03;81.61;94940.71;1697998;85;20182;-67
2021/05/16 05:05:15;;;;;;;;;;;;;;;10.20;81.94;94938.48;1698279;85;20150;-67
2021/05/16 05:07:41;;;;;;;;;;;;;;;10.36;81.52;94935.02;1698352;85;20170;-67
2021/05/16 05:10:09;;;;;;;;;;;;;;;10.51;81.60;94937.22;1698201;85;20214;-67
2021/05/16 05:12:35;;;;;;;;;;;;;;;10.70;80.37;94944.12;1698370;85;20162;-67
2021/05/16 05:15:03;;;;;;;;;;;;;;;10.85;80.09;94943.27;1698278;85;20170;-67
2021/05/16 05:17:29;;;;;;;;;;;;;;;11.14;80.05;94941.07;1695266;84;20472;-67
2021/05/16 05:19:56;;;;;;;;;;;;;;;11.48;79.42;94940.37;1694897;85;20222;-67
2021/05/16 05:22:22;;;;;;;;;;;;;;;11.77;79.93;94939.89;1694762;85;20556;-67
2021/05/16 05:24:48;;;;;;;;;;;;;;;11.96;78.95;94935.32;1694798;85;20166;-67
2021/05/16 05:27:15;;;;;;;;;;;;;;;12.10;77.32;94931.75;1694720;85;20563;-67
2021/05/16 05:29:41;;;;;;;;;;;;;;;12.24;77.62;94932.56;1694763;84;20158;-67
2021/05/16 05:32:07;;;;;;;;;;;;;;;12.35;77.07;94935.70;1694488;85;20170;-67
2021/05/16 05:34:34;;;;;;;;;;;;;;;12.46;76.44;94926.05;1694680;85;20139;-67
2021/05/16 05:37:00;;;;;;;;;;;;;;;12.52;76.92;94925.37;1694812;84;20159;-67
2021/05/16 05:39:26;;;;;;;;;;;;;;;12.63;76.39;94921.47;1694876;85;20218;-67
2021/05/16 05:41:53;;;;;;;;;;;;;;;12.68;75.49;94916.86;1694969;84;20163;-67
2021/05/16 05:44:19;;;;;;;;;;;;;;;12.68;74.38;94917.72;1694628;85;20221;-67
2021/05/16 05:46:45;;;;;;;;;;;;;;;12.67;75.03;94917.77;1694550;85;20186;-67
2021/05/16 05:49:12;;;;;;;;;;;;;;;12.75;76.03;94915.25;1694732;85;20222;-67
2021/05/16 05:51:38;;;;;;;;;;;;;;;12.93;76.36;94918.98;1694682;85;20146;-67
2021/05/16 05:54:05;;;;;;;;;;;;;;;13.17;75.93;94914.48;1694624;85;20511;-68
2021/05/16 05:56:32;;;;;;;;;;;;;;;13.36;74.93;94906.72;1694876;85;20166;-67
2021/05/16 05:58:58;;;;;;;;;;;;;;;13.50;74.46;94914.09;1694680;84;20150;-67
2021/05/16 06:01:24;;;;;;;;;;;;;;;13.64;73.85;94908.23;1694645;84;20150;-67
2021/05/16 06:03:50;;;;;;;;;;;;;;;13.87;74.09;94897.98;1694858;85;20206;-68
2021/05/16 06:06:16;;;;;;;;;;;;;;;14.18;74.18;94901.96;1694738;85;20177;-68
2021/05/16 06:08:43;;;;;;;;;;;;;;;14.50;74.12;94895.23;1661178;85;20154;-68
2021/05/16 06:11:09;;;;;;;;;;;;;;;14.81;73.95;94896.52;1694950;84;20175;-68
2021/05/16 06:13:36;;;;;;;;;;;;;;;15.07;71.90;94900.63;1694755;85;20202;-68
2021/05/16 06:16:02;;;;;;;;;;;;;;;15.32;71.00;94898.52;1694724;85;20158;-68
2021/05/16 06:18:29;;;;;;;;;;;;;;;15.59;70.22;94892.30;1694540;84;20165;-68
2021/05/16 06:20:55;;;;;;;;;;;;;;;15.79;68.21;94889.16;1694652;85;20475;-68
2021/05/16 06:23:21;;;;;;;;;;;;;;;15.78;67.79;94889.64;1694647;85;20512;-68
2021/05/16 06:25:48;;;;;;;;;;;;;;;15.78;68.43;94886.98;1694861;85;20175;-68
2021/05/16 06:28:15;;;;;;;;;;;;;;;15.78;66.27;94886.98;1694639;85;20668;-68
2021/05/16 06:30:42;;;;;;;;;;;;;;;15.81;64.94;94885.11;1694711;84;20150;-68
2021/05/16 06:33:08;;;;;;;;;;;;;;;16.00;64.56;94884.54;1694633;85;20221;-69
2021/05/16 06:35:34;;;;;;;;;;;;;;;16.18;65.25;94884.95;1694758;85;20475;-68
2021/05/16 06:38:01;;;;;;;;;;;;;;;16.39;65.69;94882.09;1694737;85;20166;-68
2021/05/16 06:40:31;;;;;;;;;;;;;;;16.57;65.32;94878.93;1694606;85;20201;-69
2021/05/16 06:42:55;;;;;;;;;;;;;;;16.84;64.74;94883.28;1694480;85;20182;-68
2021/05/16 06:45:22;;;;;;;;;;;;;;;17.02;64.11;94878.73;1694831;85;20206;-68
2021/05/16 06:47:48;;;;;;;;;;;;;;;17.19;62.41;94880.48;1694483;85;20229;-68
2021/05/16 06:50:15;;;;;;;;;;;;;;;17.33;63.14;94876.55;1694741;85;20178;-68
2021/05/16 06:52:41;;;;;;;;;;;;;;;17.43;62.35;94872.41;1694700;85;20183;-68
2021/05/16 06:55:08;;;;;;;;;;;;;;;17.66;61.68;94871.56;1694579;85;20219;-68
2021/05/16 06:57:35;;;;;;;;;;;;;;;17.85;60.69;94858.91;1694714;85;20155;-68
2021/05/16 07:00:01;;;;;;;;;;;;;;;18.05;60.33;94862.21;1694726;84;20170;-69
2021/05/16 07:02:28;;;;;;;;;;;;;;;18.27;60.61;94859.98;1694533;85;20151;-69
2021/05/16 07:04:54;;;;;;;;;;;;;;;18.50;59.30;94860.39;1694836;84;20166;-69
2021/05/16 07:07:21;;;;;;;;;;;;;;;18.69;54.53;94852.93;1694685;85;20135;-68
2021/05/16 07:09:47;;;;;;;;;;;;;;;18.86;52.70;94856.41;1694724;85;20484;-68
2021/05/16 07:12:13;;;;;;;;;;;;;;;18.97;49.91;94846.73;1694588;85;20155;-69
2021/05/16 07:14:40;;;;;;;;;;;;;;;19.19;52.51;94848.05;1694766;84;20249;-69
2021/05/16 07:17:06;;;;;;;;;;;;;;;19.38;50.03;94842.39;1688123;84;20490;-69
2021/05/16 07:19:33;;;;;;;;;;;;;;;19.60;51.72;94837.80;1674182;86;20170;-69
2021/05/16 07:22:00;;;;;;;;;;;;;;;19.80;49.81;94841.37;1674028;85;20166;-69
2021/05/16 07:24:26;;;;;;;;;;;;;;;19.97;49.52;94834.89;1673891;85;20163;-69
2021/05/16 07:26:53;;;;;;;;;;;;;;;20.05;45.73;94836.56;1673989;86;20506;-69
2021/05/16 07:29:19;;;;;;;;;;;;;;;20.18;47.89;94841.09;1674072;86;20178;-68
2021/05/16 07:31:45;;;;;;;;;;;;;;;20.20;46.67;94842.70;1674060;85;20203;-69
2021/05/16 07:34:12;;;;;;;;;;;;;;;19.92;45.76;94854.91;1674105;86;20174;-69
2021/05/16 07:36:38;;;;;;;;;;;;;;;19.58;49.10;94844.61;1673978;86;20487;-69
2021/05/16 07:39:05;;;;;;;;;;;;;;;19.18;52.76;94863.73;1674095;85;20147;-69
2021/05/16 07:41:31;;;;;;;;;;;;;;;18.71;57.78;94860.38;1674189;85;20464;-69
2021/05/16 07:43:58;;;;;;;;;;;;;;;18.31;59.76;94866.83;1673960;85;20170;-69
2021/05/16 07:46:24;;;;;;;;;;;;;;;18.04;59.18;94865.36;1673986;85;20507;-68
2021/05/16 07:48:50;;;;;;;;;;;;;;;17.80;60.83;94870.81;1674053;86;20186;-69
2021/05/16 07:51:16;;;;;;;;;;;;;;;17.46;61.46;94880.25;1673993;86;20511;-68
2021/05/16 07:53:43;;;;;;;;;;;;;;;17.17;60.97;94882.36;1674194;85;20166;-68
2021/05/16 07:56:10;;;;;;;;;;;;;;;16.93;61.85;94885.42;1674079;86;20503;-68
2021/05/16 07:58:37;;;;;;;;;;;;;;;16.72;62.83;94886.09;1673875;85;20154;-68
2021/05/16 08:01:03;;;;;;;;;;;;;;;16.55;63.38;94898.11;1674155;86;20488;-68
2021/05/16 08:03:30;;;;;;;;;;;;;;;16.36;65.58;94894.25;1674072;85;20158;-68
2021/05/16 08:05:58;;;;;;;;;;;;;;;16.13;67.38;94902.09;1673125;86;20154;-68
2021/05/16 08:08:24;;;;;;;;;;;;;;;15.99;68.37;94909.44;1674061;85;20150;-68
2021/05/16 08:10:51;;;;;;;;;;;;;;;15.72;69.04;94921.88;1674080;85;20187;-68
2021/05/16 08:13:17;;;;;;;;;;;;;;;15.47;70.20;94925.28;1673920;85;20155;-69
2021/05/16 08:15:44;;;;;;;;;;;;;;;15.21;74.16;94934.51;1674106;86;20150;-68
2021/05/16 08:18:11;;;;;;;;;;;;;;;15.05;74.89;94938.36;1673805;85;20479;-68
2021/05/16 08:20:37;;;;;;;;;;;;;;;14.93;75.05;94939.78;1674076;85;20170;-68
2021/05/16 08:23:04;;;;;;;;;;;;;;;14.82;75.50;94943.41;1673965;86;20178;-68
2021/05/16 08:25:35;;;;;;;;;;;;;;;14.74;76.56;94943.76;1673859;86;20171;-68
2021/05/16 08:28:02;;;;;;;;;;;;;;;14.67;76.74;94940.98;1674140;85;20154;-68
2021/05/16 08:30:28;;;;;;;;;;;;;;;14.55;77.75;94945.03;1674145;85;20162;-68
2021/05/16 08:32:56;;;;;;;;;;;;;;;14.48;77.97;94950.17;1673754;86;20507;-69
2021/05/16 08:35:22;;;;;;;;;;;;;;;14.43;78.53;94957.02;1674294;85;20162;-68
2021/05/16 08:37:49;;;;;;;;;;;;;;;14.24;80.00;94954.78;1674151;86;20475;-68
2021/05/16 08:40:15;;;;;;;;;;;;;;;14.14;79.65;94959.61;1674196;85;20162;-68
2021/05/16 08:42:43;;;;;;;;;;;;;;;14.12;79.92;94963.26;1674201;86;20138;-69
2021/05/16 08:45:12;;;;;;;;;;;;;;;14.04;79.26;94958.28;1674088;85;20187;-68
2021/05/16 08:47:41;;;;;;;;;;;;;;;13.99;78.34;94957.61;1673974;86;20190;-69
2021/05/16 08:50:10;;;;;;;;;;;;;;;13.94;77.86;94954.30;1674197;85;20174;-68
2021/05/16 08:52:37;;;;;;;;;;;;;;;13.86;78.56;94950.64;1674182;86;20151;-68
2021/05/16 08:55:06;;;;;;;;;;;;;;;13.72;77.84;94956.96;1673913;85;20163;-68
2021/05/16 08:57:32;;;;;;;;;;;;;;;13.69;77.90;94940.72;1674209;85;20154;-68
2021/05/16 09:00:15;;;;;;;;;;;;;;;13.65;80.51;94928.50;1674311;85;20188;-68
2021/05/16 09:03:02;;;;;;;;;;;;;;;13.67;81.03;94941.71;1674105;86;20166;-68
2021/05/16 09:05:34;;;;;;;;;;;;;;;13.69;79.51;94951.33;1669856;86;20204;-68
2021/05/16 09:08:05;;;;;;;;;;;;;;;13.74;79.01;94966.58;1673956;85;20174;-68
2021/05/16 09:10:33;;;;;;;;;;;;;;;13.68;79.12;94966.81;1674123;85;20170;-68
2021/05/16 09:13:07;;;;;;;;;;;;;;;13.75;79.58;94960.81;1674165;86;20166;-69
2021/05/16 09:15:34;;;;;;;;;;;;;;;13.79;78.58;94973.88;1674098;85;20500;-68
2021/05/16 09:18:00;;;;;;;;;;;;;;;13.81;78.83;94983.97;1674050;85;20166;-68
2021/05/16 09:20:28;;;;;;;;;;;;;;;13.71;78.34;94998.52;1674172;85;20162;-68
2021/05/16 09:22:54;;;;;;;;;;;;;;;13.63;77.88;94993.53;1674058;85;20491;-68
2021/05/16 09:25:31;;;;;;;;;;;;;;;13.64;78.09;94995.25;1674163;85;20142;-68
2021/05/16 09:28:07;;;;;;;;;;;;;;;13.68;78.60;94992.00;1674098;86;20186;-68
2021/05/16 09:30:34;;;;;;;;;;;;;;;13.78;79.28;94989.84;1673485;86;20491;-68
2021/05/16 09:33:04;;;;;;;;;;;;;;;13.81;79.47;94987.09;1673962;86;20222;-68
2021/05/16 09:35:39;;;;;;;;;;;;;;;13.84;78.24;94985.16;1674079;85;20155;-68
2021/05/16 09:38:09;;;;;;;;;;;;;;;13.83;78.39;94988.75;1674151;86;20186;-68
2021/05/16 09:40:44;;;;;;;;;;;;;;;13.73;78.74;94993.14;1673653;86;20155;-68
2021/05/16 09:43:17;;;;;;;;;;;;;;;13.64;79.35;94995.25;1674001;85;20154;-68
2021/05/16 09:45:47;;;;;;;;;;;;;;;13.63;79.39;94996.19;1645230;86;20154;-68
2021/05/16 09:48:19;;;;;;;;;;;;;;;13.66;79.76;94993.87;1674039;85;20143;-68
2021/05/16 09:50:49;;;;;;;;;;;;;;;13.70;79.34;94994.59;1674002;85;20511;-69
2021/05/16 09:53:15;;;;;;;;;;;;;;;13.45;80.58;95002.19;1668861;86;20539;-68
2021/05/16 09:55:41;;;;;;;;;;;;;;;13.49;80.62;94993.20;1674127;85;20475;-68
2021/05/16 09:58:07;;;;;;;;;;;;;;;13.59;81.10;94996.36;1674014;86;20157;-68
2021/05/16 10:00:35;;;;;;;;;;;;;;;13.73;80.58;94991.81;1674208;86;20467;-68
2021/05/16 10:03:06;;;;;;;;;;;;;;;13.83;80.96;94991.84;1674242;85;20150;-68
2021/05/16 10:05:29;;;;;;;;;;;;;;;13.87;80.92;94989.95;1673509;86;20486;-68
2021/05/16 10:07:55;;;;;;;;;;;;;;;13.91;80.16;94983.13;1674093;85;20534;-68
2021/05/16 10:10:22;;;;;;;;;;;;;;;13.91;80.48;94992.84;1674309;86;20142;-69
2021/05/16 10:12:48;;;;;;;;;;;;;;;13.90;79.85;94994.64;1673924;86;20146;-68
2021/05/16 10:15:19;;;;;;;;;;;;;;;13.89;79.93;94994.26;1645183;86;20170;-68
2021/05/16 10:17:55;;;;;;;;;;;;;;;13.78;79.88;94993.37;1678197;84;20170;-68
2021/05/16 10:20:25;;;;;;;;;;;;;;;13.74;80.32;94996.21;1694571;85;20489;-68
2021/05/16 10:22:53;;;;;;;;;;;;;;;13.71;79.62;94989.69;1694662;85;20147;-68
2021/05/16 10:25:43;;;;;;;;;;;;;;;13.73;79.46;94987.84;1694640;85;20175;-68
2021/05/16 10:28:15;;;;;;;;;;;;;;;13.66;79.83;94989.00;1694746;85;20487;-68
2021/05/16 10:30:43;;;;;;;;;;;;;;;13.63;79.67;95000.59;1694785;85;20138;-68
2021/05/16 10:33:31;;;;;;;;;;;;;;;13.54;80.53;95002.31;1684811;85;20183;-68
2021/05/16 10:35:58;;;;;;;;;;;;;;;13.45;81.08;95008.81;1694853;85;20150;-68
2021/05/16 10:38:36;;;;;;;;;;;;;;;13.40;80.55;95016.08;1694829;85;20222;-68
2021/05/16 10:41:24;;;;;;;;;;;;;;;13.33;80.80;95014.59;1693610;85;20229;-68
2021/05/16 10:43:51;;;;;;;;;;;;;;;13.26;80.83;95011.77;1694739;85;20229;-68
2021/05/16 10:46:38;;;;;;;;;;;;;;;13.19;80.94;95013.31;1694661;84;20487;-68
2021/05/16 10:49:24;;;;;;;;;;;;;;;13.13;81.64;95015.34;1694644;85;20170;-68
2021/05/16 10:51:51;;;;;;;;;;;;;;;13.01;79.88;95029.05;1694770;85;20195;-68
2021/05/16 10:54:31;;;;;;;;;;;;;;;12.78;79.51;95027.63;1694618;84;20183;-68
2021/05/16 10:57:15;;;;;;;;;;;;;;;12.61;79.65;95033.98;1694756;84;20151;-68
2021/05/16 10:59:43;;;;;;;;;;;;;;;12.46;79.61;95044.65;1694737;85;20155;-68
2021/05/16 11:02:09;;;;;;;;;;;;;;;12.33;79.70;95046.86;1694564;85;20162;-68
2021/05/16 11:04:50;;;;;;;;;;;;;;;12.10;80.19;95047.64;1694594;85;20170;-68
2021/05/16 11:07:34;;;;;;;;;;;;;;;12.04;80.65;95049.61;1694692;85;20251;-68
2021/05/16 11:10:25;;;;;;;;;;;;;;;11.95;80.83;95047.28;1694642;85;20167;-67
2021/05/16 11:12:51;;;;;;;;;;;;;;;11.93;80.37;95049.11;1694772;84;20229;-68
2021/05/16 11:15:25;;;;;;;;;;;;;;;11.89;80.76;95041.28;1694586;85;20146;-68
2021/05/16 11:17:52;;;;;;;;;;;;;;;11.83;81.18;95041.89;1694659;84;20487;-68
2021/05/16 11:20:19;;;;;;;;;;;;;;;11.82;81.49;95039.72;1694709;85;20468;-68
2021/05/16 11:22:46;;;;;;;;;;;;;;;11.85;81.71;95042.25;1694451;85;20491;-68
2021/05/16 11:25:24;;;;;;;;;;;;;;;11.90;80.91;95043.47;1694811;84;20167;-68
2021/05/16 11:27:50;;;;;;;;;;;;;;;11.89;81.22;95037.31;1694747;84;20198;-68
2021/05/16 11:30:21;;;;;;;;;;;;;;;12.00;81.23;95044.03;1694723;84;20179;-68
2021/05/16 11:32:48;;;;;;;;;;;;;;;12.06;80.87;95046.46;1693910;85;20213;-68
2021/05/16 11:35:19;;;;;;;;;;;;;;;12.09;81.44;95039.28;1694586;85;20158;-68
2021/05/16 11:37:51;;;;;;;;;;;;;;;12.07;82.29;95047.74;1694732;85;20543;-68
2021/05/16 11:40:24;;;;;;;;;;;;;;;11.92;81.27;95045.61;1694735;85;20170;-68
2021/05/16 11:43:02;;;;;;;;;;;;;;;11.99;81.30;95046.25;1694587;85;20211;-68
2021/05/16 11:45:31;;;;;;;;;;;;;;;12.05;81.19;95044.28;1694712;84;20210;-68
2021/05/16 11:47:58;;;;;;;;;;;;;;;12.10;81.37;95047.64;1694596;85;20146;-68
2021/05/16 11:50:39;;;;;;;;;;;;;;;12.11;80.68;95044.06;1694532;85;20163;-68
2021/05/16 11:53:06;;;;;;;;;;;;;;;12.18;80.84;95043.41;1693923;85;20237;-68
2021/05/16 11:55:33;;;;;;;;;;;;;;;12.28;80.92;95038.21;1694911;85;20163;-68
2021/05/16 11:58:00;;;;;;;;;;;;;;;12.27;80.65;95038.25;1694643;85;20136;-68
2021/05/16 12:00:30;;;;;;;;;;;;;;;12.27;80.58;95032.97;1694594;85;20146;-69
2021/05/16 12:03:10;;;;;;;;;;;;;;;12.29;80.33;95033.78;1694528;85;20506;-68
2021/05/16 12:05:37;;;;;;;;;;;;;;;12.28;81.13;95038.21;1694773;85;20135;-68
2021/05/16 12:08:23;;;;;;;;;;;;;;;12.34;80.80;95039.31;1694828;85;20176;-68
2021/05/16 12:11:09;;;;;;;;;;;;;;;12.33;80.88;95036.73;1694754;85;20186;-68
2021/05/16 12:13:36;;;;;;;;;;;;;;;12.32;80.53;95037.20;1694885;85;20170;-68
2021/05/16 12:16:16;;;;;;;;;;;;;;;12.29;81.24;95035.96;1694948;85;20210;-68
2021/05/16 12:18:44;;;;;;;;;;;;;;;12.33;81.18;95035.41;1694534;84;20504;-67
2021/05/16 12:21:11;;;;;;;;;;;;;;;12.35;81.26;95032.27;1694817;85;20230;-68
2021/05/16 12:23:38;;;;;;;;;;;;;;;12.34;81.34;95035.81;1694918;85;20182;-68
2021/05/16 12:26:04;;;;;;;;;;;;;;;12.41;81.16;95036.01;1694836;85;20195;-68
2021/05/16 12:28:31;;;;;;;;;;;;;;;12.43;81.59;95043.44;1660268;85;20186;-68
2021/05/16 12:30:59;;;;;;;;;;;;;;;12.48;81.38;95034.02;1694658;85;20175;-67
2021/05/16 12:33:25;;;;;;;;;;;;;;;12.51;81.40;95024.65;1694950;85;20169;-68
2021/05/16 12:35:52;;;;;;;;;;;;;;;12.60;81.01;95017.72;1694652;85;20159;-68
2021/05/16 12:38:18;;;;;;;;;;;;;;;12.67;81.61;95023.17;1694645;85;20225;-68
2021/05/16 12:40:45;;;;;;;;;;;;;;;12.79;81.09;95020.55;1694919;85;20235;-68
2021/05/16 12:43:13;;;;;;;;;;;;;;;12.91;81.08;95023.22;1694904;85;20166;-68
2021/05/16 12:45:41;;;;;;;;;;;;;;;13.07;81.15;95015.56;1694674;85;20222;-68
2021/05/16 12:48:16;;;;;;;;;;;;;;;13.25;81.18;95016.17;1694867;85;20468;-68
2021/05/16 12:50:54;;;;;;;;;;;;;;;13.41;80.21;95008.55;1694768;85;20146;-68
2021/05/16 12:53:33;;;;;;;;;;;;;;;13.54;79.52;95016.42;1694817;85;20170;-68
2021/05/16 12:56:20;;;;;;;;;;;;;;;13.63;79.26;95008.11;1694875;85;20166;-68